sensor_id;sensor_type;location;lat;lon;timestamp;temperature;humidity
80250;DHT22;69561;37.974;23.708;2023-06-22T00:00:58;27.70;37.40
80250;DHT22;69561;37.974;23.708;2023-06-22T00:03:24;27.70;37.30
80250;DHT22;69561;37.974;23.708;2023-06-22T00:05:51;27.70;37.30
80250;DHT22;69561;37.974;23.708;2023-06-22T00:08:17;27.70;37.00
80250;DHT22;69561;37.974;23.708;2023-06-22T00:10:44;27.70;37.10
80250;DHT22;69561;37.974;23.708;2023-06-22T00:13:11;27.70;37.20
80250;DHT22;69561;37.974;23.708;2023-06-22T00:15:38;27.70;37.00
80250;DHT22;69561;37.974;23.708;2023-06-22T00:18:08;27.80;36.80
80250;DHT22;69561;37.974;23.708;2023-06-22T00:20:35;27.70;36.70
80250;DHT22;69561;37.974;23.708;2023-06-22T00:23:05;27.60;36.90
80250;DHT22;69561;37.974;23.708;2023-06-22T00:25:38;27.60;37.10
80250;DHT22;69561;37.974;23.708;2023-06-22T00:28:05;27.60;37.20
80250;DHT22;69561;37.974;23.708;2023-06-22T00:30:32;27.50;37.00
80250;DHT22;69561;37.974;23.708;2023-06-22T00:32:58;27.50;37.10
80250;DHT22;69561;37.974;23.708;2023-06-22T00:35:24;27.60;37.10
80250;DHT22;69561;37.974;23.708;2023-06-22T00:37:59;27.60;37.00
80250;DHT22;69561;37.974;23.708;2023-06-22T00:40:32;27.50;37.00
80250;DHT22;69561;37.974;23.708;2023-06-22T00:42:58;27.50;36.80
80250;DHT22;69561;37.974;23.708;2023-06-22T00:45:25;27.60;36.80
80250;DHT22;69561;37.974;23.708;2023-06-22T00:47:57;27.50;37.00
80250;DHT22;69561;37.974;23.708;2023-06-22T00:50:25;27.50;37.20
80250;DHT22;69561;37.974;23.708;2023-06-22T00:52:56;27.50;37.20
80250;DHT22;69561;37.974;23.708;2023-06-22T00:55:22;27.50;37.30
80250;DHT22;69561;37.974;23.708;2023-06-22T00:57:48;27.50;37.40
80250;DHT22;69561;37.974;23.708;2023-06-22T01:00:15;27.50;37.30
80250;DHT22;69561;37.974;23.708;2023-06-22T01:02:45;27.50;37.30
80250;DHT22;69561;37.974;23.708;2023-06-22T01:05:13;27.50;37.60
80250;DHT22;69561;37.974;23.708;2023-06-22T01:10:18;27.30;38.00
80250;DHT22;69561;37.974;23.708;2023-06-22T01:12:53;27.40;37.90
80250;DHT22;69561;37.974;23.708;2023-06-22T01:15:28;27.30;38.00
80250;DHT22;69561;37.974;23.708;2023-06-22T01:17:56;27.30;38.10
80250;DHT22;69561;37.974;23.708;2023-06-22T01:20:23;27.30;38.30
80250;DHT22;69561;37.974;23.708;2023-06-22T01:25:33;27.50;38.20
80250;DHT22;69561;37.974;23.708;2023-06-22T01:30:58;27.30;38.70
80250;DHT22;69561;37.974;23.708;2023-06-22T01:33:34;27.30;38.90
80250;DHT22;69561;37.974;23.708;2023-06-22T01:36:01;27.30;39.10
80250;DHT22;69561;37.974;23.708;2023-06-22T01:38:29;27.30;39.00
80250;DHT22;69561;37.974;23.708;2023-06-22T01:40:55;27.20;39.10
80250;DHT22;69561;37.974;23.708;2023-06-22T01:43:22;27.30;39.40
80250;DHT22;69561;37.974;23.708;2023-06-22T01:45:50;27.20;39.40
80250;DHT22;69561;37.974;23.708;2023-06-22T01:48:17;27.20;39.50
80250;DHT22;69561;37.974;23.708;2023-06-22T01:50:43;27.30;39.60
80250;DHT22;69561;37.974;23.708;2023-06-22T01:53:08;27.30;39.60
80250;DHT22;69561;37.974;23.708;2023-06-22T01:55:34;27.30;39.60
80250;DHT22;69561;37.974;23.708;2023-06-22T01:58:00;27.30;39.70
80250;DHT22;69561;37.974;23.708;2023-06-22T02:00:28;27.30;39.80
80250;DHT22;69561;37.974;23.708;2023-06-22T02:02:59;27.40;39.90
80250;DHT22;69561;37.974;23.708;2023-06-22T02:05:33;27.30;39.90
80250;DHT22;69561;37.974;23.708;2023-06-22T02:08:13;27.40;40.00
80250;DHT22;69561;37.974;23.708;2023-06-22T02:10:44;27.40;40.10
80250;DHT22;69561;37.974;23.708;2023-06-22T02:13:11;27.30;40.10
80250;DHT22;69561;37.974;23.708;2023-06-22T02:15:38;27.40;40.10
80250;DHT22;69561;37.974;23.708;2023-06-22T02:18:04;27.40;40.10
80250;DHT22;69561;37.974;23.708;2023-06-22T02:20:30;27.40;40.10
80250;DHT22;69561;37.974;23.708;2023-06-22T02:22:56;27.40;40.20
80250;DHT22;69561;37.974;23.708;2023-06-22T02:25:22;27.40;40.20
80250;DHT22;69561;37.974;23.708;2023-06-22T02:27:47;27.50;39.70
80250;DHT22;69561;37.974;23.708;2023-06-22T02:30:13;27.50;39.70
80250;DHT22;69561;37.974;23.708;2023-06-22T02:32:41;27.50;39.70
80250;DHT22;69561;37.974;23.708;2023-06-22T02:35:08;27.50;39.70
80250;DHT22;69561;37.974;23.708;2023-06-22T02:37:36;27.40;39.80
80250;DHT22;69561;37.974;23.708;2023-06-22T02:40:05;27.40;39.80
80250;DHT22;69561;37.974;23.708;2023-06-22T02:42:32;27.40;39.90
80250;DHT22;69561;37.974;23.708;2023-06-22T02:44:58;27.40;39.90
80250;DHT22;69561;37.974;23.708;2023-06-22T02:47:23;27.40;39.80
80250;DHT22;69561;37.974;23.708;2023-06-22T02:49:49;27.40;39.90
80250;DHT22;69561;37.974;23.708;2023-06-22T02:52:15;27.40;39.90
80250;DHT22;69561;37.974;23.708;2023-06-22T02:54:40;27.40;40.00
80250;DHT22;69561;37.974;23.708;2023-06-22T02:57:06;27.40;40.10
80250;DHT22;69561;37.974;23.708;2023-06-22T02:59:32;27.50;40.10
80250;DHT22;69561;37.974;23.708;2023-06-22T03:01:57;27.40;40.10
80250;DHT22;69561;37.974;23.708;2023-06-22T03:04:23;27.40;40.20
80250;DHT22;69561;37.974;23.708;2023-06-22T03:06:49;27.40;40.30
80250;DHT22;69561;37.974;23.708;2023-06-22T03:09:16;27.40;40.30
80250;DHT22;69561;37.974;23.708;2023-06-22T03:11:42;27.40;40.10
80250;DHT22;69561;37.974;23.708;2023-06-22T03:14:08;27.50;39.80
80250;DHT22;69561;37.974;23.708;2023-06-22T03:16:33;27.40;39.60
80250;DHT22;69561;37.974;23.708;2023-06-22T03:18:59;27.40;39.50
80250;DHT22;69561;37.974;23.708;2023-06-22T03:21:28;27.40;39.40
80250;DHT22;69561;37.974;23.708;2023-06-22T03:23:54;27.40;39.50
80250;DHT22;69561;37.974;23.708;2023-06-22T03:26:19;27.40;39.40
80250;DHT22;69561;37.974;23.708;2023-06-22T03:28:46;27.40;39.50
80250;DHT22;69561;37.974;23.708;2023-06-22T03:31:11;27.40;39.60
80250;DHT22;69561;37.974;23.708;2023-06-22T03:33:37;27.40;39.50
80250;DHT22;69561;37.974;23.708;2023-06-22T03:36:03;27.40;39.70
80250;DHT22;69561;37.974;23.708;2023-06-22T03:38:29;27.40;40.30
80250;DHT22;69561;37.974;23.708;2023-06-22T03:40:55;27.40;39.90
80250;DHT22;69561;37.974;23.708;2023-06-22T03:43:20;27.50;40.10
80250;DHT22;69561;37.974;23.708;2023-06-22T03:45:46;27.50;40.10
80250;DHT22;69561;37.974;23.708;2023-06-22T03:48:12;27.50;40.10
80250;DHT22;69561;37.974;23.708;2023-06-22T03:50:38;27.50;40.20
80250;DHT22;69561;37.974;23.708;2023-06-22T03:53:04;27.60;40.20
80250;DHT22;69561;37.974;23.708;2023-06-22T03:55:29;27.60;40.20
80250;DHT22;69561;37.974;23.708;2023-06-22T03:57:55;27.70;40.00
80250;DHT22;69561;37.974;23.708;2023-06-22T04:00:23;27.80;39.50
80250;DHT22;69561;37.974;23.708;2023-06-22T04:02:49;27.90;39.30
80250;DHT22;69561;37.974;23.708;2023-06-22T04:05:15;27.90;39.20
80250;DHT22;69561;37.974;23.708;2023-06-22T04:07:42;27.80;39.40
80250;DHT22;69561;37.974;23.708;2023-06-22T04:10:08;27.80;39.60
80250;DHT22;69561;37.974;23.708;2023-06-22T04:12:34;27.80;40.00
80250;DHT22;69561;37.974;23.708;2023-06-22T04:15:00;27.80;40.10
80250;DHT22;69561;37.974;23.708;2023-06-22T04:17:26;27.80;40.40
80250;DHT22;69561;37.974;23.708;2023-06-22T04:19:52;27.90;40.50
80250;DHT22;69561;37.974;23.708;2023-06-22T04:22:17;27.90;40.50
80250;DHT22;69561;37.974;23.708;2023-06-22T04:24:44;27.90;40.60
80250;DHT22;69561;37.974;23.708;2023-06-22T04:27:10;27.90;40.60
80250;DHT22;69561;37.974;23.708;2023-06-22T04:29:37;27.90;40.60
80250;DHT22;69561;37.974;23.708;2023-06-22T04:32:04;28.00;40.60
80250;DHT22;69561;37.974;23.708;2023-06-22T04:34:31;28.00;40.60
80250;DHT22;69561;37.974;23.708;2023-06-22T04:36:57;28.10;40.70
80250;DHT22;69561;37.974;23.708;2023-06-22T04:39:23;28.10;40.70
80250;DHT22;69561;37.974;23.708;2023-06-22T04:41:49;28.10;40.60
80250;DHT22;69561;37.974;23.708;2023-06-22T04:44:17;28.10;40.60
80250;DHT22;69561;37.974;23.708;2023-06-22T04:47:00;28.10;40.80
80250;DHT22;69561;37.974;23.708;2023-06-22T04:49:29;28.10;41.00
80250;DHT22;69561;37.974;23.708;2023-06-22T04:52:09;28.10;41.00
80250;DHT22;69561;37.974;23.708;2023-06-22T04:54:36;28.10;41.10
80250;DHT22;69561;37.974;23.708;2023-06-22T04:57:04;28.10;41.10
80250;DHT22;69561;37.974;23.708;2023-06-22T04:59:31;28.10;41.10
80250;DHT22;69561;37.974;23.708;2023-06-22T05:02:00;28.20;41.20
80250;DHT22;69561;37.974;23.708;2023-06-22T05:04:27;28.20;41.20
80250;DHT22;69561;37.974;23.708;2023-06-22T05:06:54;28.20;41.20
80250;DHT22;69561;37.974;23.708;2023-06-22T05:09:20;28.20;41.10
80250;DHT22;69561;37.974;23.708;2023-06-22T05:11:47;28.20;41.00
80250;DHT22;69561;37.974;23.708;2023-06-22T05:14:12;28.30;41.00
80250;DHT22;69561;37.974;23.708;2023-06-22T05:16:40;28.30;40.80
80250;DHT22;69561;37.974;23.708;2023-06-22T05:19:06;28.30;40.80
80250;DHT22;69561;37.974;23.708;2023-06-22T05:21:32;28.30;40.80
80250;DHT22;69561;37.974;23.708;2023-06-22T05:23:58;28.30;40.40
80250;DHT22;69561;37.974;23.708;2023-06-22T05:26:26;28.40;40.50
80250;DHT22;69561;37.974;23.708;2023-06-22T05:28:53;28.40;40.40
80250;DHT22;69561;37.974;23.708;2023-06-22T05:31:19;28.40;40.40
80250;DHT22;69561;37.974;23.708;2023-06-22T05:33:46;28.40;40.30
80250;DHT22;69561;37.974;23.708;2023-06-22T05:36:12;28.40;40.20
80250;DHT22;69561;37.974;23.708;2023-06-22T05:38:39;28.40;40.20
80250;DHT22;69561;37.974;23.708;2023-06-22T05:41:05;28.40;40.20
80250;DHT22;69561;37.974;23.708;2023-06-22T05:43:31;28.40;40.20
80250;DHT22;69561;37.974;23.708;2023-06-22T05:45:57;28.40;40.30
80250;DHT22;69561;37.974;23.708;2023-06-22T05:48:23;28.40;40.20
80250;DHT22;69561;37.974;23.708;2023-06-22T05:50:49;28.40;40.20
80250;DHT22;69561;37.974;23.708;2023-06-22T05:53:15;28.40;40.10
80250;DHT22;69561;37.974;23.708;2023-06-22T05:55:41;28.40;40.10
80250;DHT22;69561;37.974;23.708;2023-06-22T05:58:08;28.40;40.10
80250;DHT22;69561;37.974;23.708;2023-06-22T06:00:34;28.50;40.10
80250;DHT22;69561;37.974;23.708;2023-06-22T06:03:00;28.50;40.00
80250;DHT22;69561;37.974;23.708;2023-06-22T06:05:33;28.40;39.90
80250;DHT22;69561;37.974;23.708;2023-06-22T06:08:00;28.50;40.00
80250;DHT22;69561;37.974;23.708;2023-06-22T06:10:26;28.50;40.00
80250;DHT22;69561;37.974;23.708;2023-06-22T06:12:53;28.40;39.90
80250;DHT22;69561;37.974;23.708;2023-06-22T06:15:18;28.50;40.00
80250;DHT22;69561;37.974;23.708;2023-06-22T06:17:52;28.50;40.00
80250;DHT22;69561;37.974;23.708;2023-06-22T06:20:22;28.50;40.00
80250;DHT22;69561;37.974;23.708;2023-06-22T06:22:49;28.50;40.10
80250;DHT22;69561;37.974;23.708;2023-06-22T06:25:15;28.40;40.10
80250;DHT22;69561;37.974;23.708;2023-06-22T06:27:49;28.40;40.20
80250;DHT22;69561;37.974;23.708;2023-06-22T06:30:18;28.40;40.20
80250;DHT22;69561;37.974;23.708;2023-06-22T06:32:45;28.40;40.30
80250;DHT22;69561;37.974;23.708;2023-06-22T06:35:12;28.40;40.20
80250;DHT22;69561;37.974;23.708;2023-06-22T06:37:47;28.50;40.30
80250;DHT22;69561;37.974;23.708;2023-06-22T06:40:14;28.50;40.30
80250;DHT22;69561;37.974;23.708;2023-06-22T06:42:48;28.50;40.40
80250;DHT22;69561;37.974;23.708;2023-06-22T06:45:22;28.50;40.50
80250;DHT22;69561;37.974;23.708;2023-06-22T06:47:49;28.50;40.50
80250;DHT22;69561;37.974;23.708;2023-06-22T06:50:15;28.50;40.60
80250;DHT22;69561;37.974;23.708;2023-06-22T06:52:41;28.60;40.80
80250;DHT22;69561;37.974;23.708;2023-06-22T06:55:08;28.50;40.70
80250;DHT22;69561;37.974;23.708;2023-06-22T06:57:40;28.60;40.80
80250;DHT22;69561;37.974;23.708;2023-06-22T07:00:11;28.60;40.80
80250;DHT22;69561;37.974;23.708;2023-06-22T07:02:44;28.60;40.80
80250;DHT22;69561;37.974;23.708;2023-06-22T07:05:10;28.60;40.80
80250;DHT22;69561;37.974;23.708;2023-06-22T07:07:37;28.60;40.80
80250;DHT22;69561;37.974;23.708;2023-06-22T07:10:03;28.60;40.90
80250;DHT22;69561;37.974;23.708;2023-06-22T07:12:29;28.60;40.90
80250;DHT22;69561;37.974;23.708;2023-06-22T07:15:04;28.70;41.00
80250;DHT22;69561;37.974;23.708;2023-06-22T07:17:30;28.70;41.00
80250;DHT22;69561;37.974;23.708;2023-06-22T07:19:56;28.70;40.90
80250;DHT22;69561;37.974;23.708;2023-06-22T07:22:22;28.80;41.00
80250;DHT22;69561;37.974;23.708;2023-06-22T07:24:48;28.70;40.90
80250;DHT22;69561;37.974;23.708;2023-06-22T07:27:14;28.80;41.00
80250;DHT22;69561;37.974;23.708;2023-06-22T07:29:43;28.80;40.90
80250;DHT22;69561;37.974;23.708;2023-06-22T07:32:09;28.80;40.90
80250;DHT22;69561;37.974;23.708;2023-06-22T07:34:34;28.80;41.00
80250;DHT22;69561;37.974;23.708;2023-06-22T07:37:00;28.70;41.00
80250;DHT22;69561;37.974;23.708;2023-06-22T07:39:26;28.80;41.10
80250;DHT22;69561;37.974;23.708;2023-06-22T07:41:52;28.80;41.10
80250;DHT22;69561;37.974;23.708;2023-06-22T07:44:18;28.70;41.10
80250;DHT22;69561;37.974;23.708;2023-06-22T07:46:44;28.70;42.10
80250;DHT22;69561;37.974;23.708;2023-06-22T07:49:09;28.70;41.30
80250;DHT22;69561;37.974;23.708;2023-06-22T07:51:35;28.70;41.60
80250;DHT22;69561;37.974;23.708;2023-06-22T07:54:01;28.70;41.80
80250;DHT22;69561;37.974;23.708;2023-06-22T07:56:27;28.70;42.00
80250;DHT22;69561;37.974;23.708;2023-06-22T07:58:52;28.70;42.00
80250;DHT22;69561;37.974;23.708;2023-06-22T08:01:19;28.80;41.70
80250;DHT22;69561;37.974;23.708;2023-06-22T08:03:50;28.80;41.70
80250;DHT22;69561;37.974;23.708;2023-06-22T08:06:18;28.80;41.80
80250;DHT22;69561;37.974;23.708;2023-06-22T08:08:43;28.80;41.80
80250;DHT22;69561;37.974;23.708;2023-06-22T08:11:13;28.80;41.90
80250;DHT22;69561;37.974;23.708;2023-06-22T08:13:39;28.80;41.90
80250;DHT22;69561;37.974;23.708;2023-06-22T08:16:04;28.80;41.60
80250;DHT22;69561;37.974;23.708;2023-06-22T08:18:30;28.80;41.60
80250;DHT22;69561;37.974;23.708;2023-06-22T08:20:56;28.80;41.80
80250;DHT22;69561;37.974;23.708;2023-06-22T08:23:22;28.90;41.70
80250;DHT22;69561;37.974;23.708;2023-06-22T08:25:47;28.80;41.70
80250;DHT22;69561;37.974;23.708;2023-06-22T08:28:15;28.80;41.70
80250;DHT22;69561;37.974;23.708;2023-06-22T08:30:41;28.80;41.70
80250;DHT22;69561;37.974;23.708;2023-06-22T08:33:07;28.70;41.90
80250;DHT22;69561;37.974;23.708;2023-06-22T08:35:32;28.80;41.90
80250;DHT22;69561;37.974;23.708;2023-06-22T08:37:58;28.80;41.80
80250;DHT22;69561;37.974;23.708;2023-06-22T08:40:25;28.80;41.70
80250;DHT22;69561;37.974;23.708;2023-06-22T08:42:50;28.80;41.60
80250;DHT22;69561;37.974;23.708;2023-06-22T08:45:16;28.80;41.70
80250;DHT22;69561;37.974;23.708;2023-06-22T08:47:42;28.70;41.70
80250;DHT22;69561;37.974;23.708;2023-06-22T08:50:09;28.80;41.70
80250;DHT22;69561;37.974;23.708;2023-06-22T08:52:35;28.80;41.60
80250;DHT22;69561;37.974;23.708;2023-06-22T08:55:01;28.80;41.60
80250;DHT22;69561;37.974;23.708;2023-06-22T08:57:27;28.80;41.60
80250;DHT22;69561;37.974;23.708;2023-06-22T08:59:53;28.80;41.70
80250;DHT22;69561;37.974;23.708;2023-06-22T09:02:24;28.80;41.70
80250;DHT22;69561;37.974;23.708;2023-06-22T09:04:49;28.80;41.80
80250;DHT22;69561;37.974;23.708;2023-06-22T09:07:21;28.70;41.80
80250;DHT22;69561;37.974;23.708;2023-06-22T09:09:48;28.70;41.90
80250;DHT22;69561;37.974;23.708;2023-06-22T09:12:14;28.70;42.00
80250;DHT22;69561;37.974;23.708;2023-06-22T09:14:40;28.70;42.00
80250;DHT22;69561;37.974;23.708;2023-06-22T09:17:05;28.70;42.10
80250;DHT22;69561;37.974;23.708;2023-06-22T09:19:31;28.70;42.00
80250;DHT22;69561;37.974;23.708;2023-06-22T09:21:57;28.70;42.00
80250;DHT22;69561;37.974;23.708;2023-06-22T09:24:23;28.80;41.70
80250;DHT22;69561;37.974;23.708;2023-06-22T09:26:49;29.00;41.30
80250;DHT22;69561;37.974;23.708;2023-06-22T09:29:15;29.10;41.30
80250;DHT22;69561;37.974;23.708;2023-06-22T09:31:41;29.20;41.10
80250;DHT22;69561;37.974;23.708;2023-06-22T09:34:07;29.10;41.10
80250;DHT22;69561;37.974;23.708;2023-06-22T09:36:33;29.10;41.20
80250;DHT22;69561;37.974;23.708;2023-06-22T09:38:58;29.10;41.20
80250;DHT22;69561;37.974;23.708;2023-06-22T09:41:24;29.00;41.10
80250;DHT22;69561;37.974;23.708;2023-06-22T09:43:50;29.10;41.10
80250;DHT22;69561;37.974;23.708;2023-06-22T09:46:26;29.00;41.10
80250;DHT22;69561;37.974;23.708;2023-06-22T09:48:52;29.00;41.20
80250;DHT22;69561;37.974;23.708;2023-06-22T09:51:19;29.00;41.20
80250;DHT22;69561;37.974;23.708;2023-06-22T09:53:47;29.00;40.90
80250;DHT22;69561;37.974;23.708;2023-06-22T09:56:13;29.10;40.70
80250;DHT22;69561;37.974;23.708;2023-06-22T09:58:47;29.20;40.60
80250;DHT22;69561;37.974;23.708;2023-06-22T10:01:13;29.20;40.60
80250;DHT22;69561;37.974;23.708;2023-06-22T10:03:42;29.10;40.60
80250;DHT22;69561;37.974;23.708;2023-06-22T10:06:08;29.10;40.60
80250;DHT22;69561;37.974;23.708;2023-06-22T10:08:37;29.10;40.60
80250;DHT22;69561;37.974;23.708;2023-06-22T10:11:04;29.20;40.70
80250;DHT22;69561;37.974;23.708;2023-06-22T10:13:31;29.10;40.70
80250;DHT22;69561;37.974;23.708;2023-06-22T10:15:57;29.10;40.70
80250;DHT22;69561;37.974;23.708;2023-06-22T10:18:22;29.20;40.80
80250;DHT22;69561;37.974;23.708;2023-06-22T10:20:50;29.10;40.70
80250;DHT22;69561;37.974;23.708;2023-06-22T10:23:20;29.30;40.40
80250;DHT22;69561;37.974;23.708;2023-06-22T10:25:46;29.30;40.40
80250;DHT22;69561;37.974;23.708;2023-06-22T10:28:11;29.20;40.40
80250;DHT22;69561;37.974;23.708;2023-06-22T10:30:39;29.20;40.50
80250;DHT22;69561;37.974;23.708;2023-06-22T10:33:07;29.20;40.60
80250;DHT22;69561;37.974;23.708;2023-06-22T10:35:33;29.20;40.90
80250;DHT22;69561;37.974;23.708;2023-06-22T10:37:59;29.10;40.90
80250;DHT22;69561;37.974;23.708;2023-06-22T10:40:25;29.20;41.00
80250;DHT22;69561;37.974;23.708;2023-06-22T10:42:51;29.20;40.90
80250;DHT22;69561;37.974;23.708;2023-06-22T10:45:17;29.40;40.80
80250;DHT22;69561;37.974;23.708;2023-06-22T10:47:42;29.30;40.80
80250;DHT22;69561;37.974;23.708;2023-06-22T10:50:08;29.30;41.00
80250;DHT22;69561;37.974;23.708;2023-06-22T10:52:34;29.20;41.20
80250;DHT22;69561;37.974;23.708;2023-06-22T10:55:01;29.20;41.30
80250;DHT22;69561;37.974;23.708;2023-06-22T10:57:27;29.10;41.40
80250;DHT22;69561;37.974;23.708;2023-06-22T10:59:53;29.10;41.60
80250;DHT22;69561;37.974;23.708;2023-06-22T11:02:19;29.20;41.30
80250;DHT22;69561;37.974;23.708;2023-06-22T11:04:44;29.20;41.20
80250;DHT22;69561;37.974;23.708;2023-06-22T11:07:11;29.20;41.20
80250;DHT22;69561;37.974;23.708;2023-06-22T11:09:40;29.20;41.20
80250;DHT22;69561;37.974;23.708;2023-06-22T11:12:07;29.20;41.30
80250;DHT22;69561;37.974;23.708;2023-06-22T11:14:33;29.20;41.20
80250;DHT22;69561;37.974;23.708;2023-06-22T11:16:59;29.10;41.20
80250;DHT22;69561;37.974;23.708;2023-06-22T11:19:25;29.10;41.20
80250;DHT22;69561;37.974;23.708;2023-06-22T11:21:50;29.10;41.20
80250;DHT22;69561;37.974;23.708;2023-06-22T11:24:16;29.10;41.20
80250;DHT22;69561;37.974;23.708;2023-06-22T11:26:42;29.20;41.10
80250;DHT22;69561;37.974;23.708;2023-06-22T11:29:09;29.30;41.00
80250;DHT22;69561;37.974;23.708;2023-06-22T11:31:36;29.20;40.90
80250;DHT22;69561;37.974;23.708;2023-06-22T11:34:02;29.20;41.00
80250;DHT22;69561;37.974;23.708;2023-06-22T11:36:28;29.20;41.00
80250;DHT22;69561;37.974;23.708;2023-06-22T11:38:54;29.30;40.90
80250;DHT22;69561;37.974;23.708;2023-06-22T11:41:20;29.50;41.50
80250;DHT22;69561;37.974;23.708;2023-06-22T11:43:46;29.40;43.40
80250;DHT22;69561;37.974;23.708;2023-06-22T11:46:11;29.50;41.70
80250;DHT22;69561;37.974;23.708;2023-06-22T11:48:37;29.40;41.50
80250;DHT22;69561;37.974;23.708;2023-06-22T11:51:04;29.30;41.30
80250;DHT22;69561;37.974;23.708;2023-06-22T11:53:32;29.30;41.40
80250;DHT22;69561;37.974;23.708;2023-06-22T11:56:00;29.30;41.40
80250;DHT22;69561;37.974;23.708;2023-06-22T11:58:26;29.40;41.00
80250;DHT22;69561;37.974;23.708;2023-06-22T12:00:53;29.60;39.80
80250;DHT22;69561;37.974;23.708;2023-06-22T12:03:20;29.60;39.80
80250;DHT22;69561;37.974;23.708;2023-06-22T12:05:49;29.70;39.80
80250;DHT22;69561;37.974;23.708;2023-06-22T12:08:15;29.60;39.80
80250;DHT22;69561;37.974;23.708;2023-06-22T12:10:40;29.50;40.10
80250;DHT22;69561;37.974;23.708;2023-06-22T12:13:06;29.50;40.50
80250;DHT22;69561;37.974;23.708;2023-06-22T12:15:32;29.40;40.60
80250;DHT22;69561;37.974;23.708;2023-06-22T12:17:57;29.40;40.80
80250;DHT22;69561;37.974;23.708;2023-06-22T12:20:23;29.50;40.70
80250;DHT22;69561;37.974;23.708;2023-06-22T12:22:49;29.60;40.50
80250;DHT22;69561;37.974;23.708;2023-06-22T12:25:17;29.50;40.40
80250;DHT22;69561;37.974;23.708;2023-06-22T12:27:42;29.50;40.30
80250;DHT22;69561;37.974;23.708;2023-06-22T12:30:08;29.70;40.00
80250;DHT22;69561;37.974;23.708;2023-06-22T12:32:34;29.60;40.00
80250;DHT22;69561;37.974;23.708;2023-06-22T12:35:00;29.60;40.00
80250;DHT22;69561;37.974;23.708;2023-06-22T12:37:26;29.60;41.20
80250;DHT22;69561;37.974;23.708;2023-06-22T12:39:54;29.50;40.40
80250;DHT22;69561;37.974;23.708;2023-06-22T12:42:19;29.50;40.50
80250;DHT22;69561;37.974;23.708;2023-06-22T12:44:46;29.50;40.40
80250;DHT22;69561;37.974;23.708;2023-06-22T12:47:12;29.50;40.40
80250;DHT22;69561;37.974;23.708;2023-06-22T12:49:38;29.50;40.40
80250;DHT22;69561;37.974;23.708;2023-06-22T12:52:09;29.40;40.50
80250;DHT22;69561;37.974;23.708;2023-06-22T12:54:35;29.40;40.60
80250;DHT22;69561;37.974;23.708;2023-06-22T12:57:01;29.40;40.90
80250;DHT22;69561;37.974;23.708;2023-06-22T12:59:27;29.50;40.90
80250;DHT22;69561;37.974;23.708;2023-06-22T13:01:54;29.50;41.10
80250;DHT22;69561;37.974;23.708;2023-06-22T13:04:20;29.40;41.00
80250;DHT22;69561;37.974;23.708;2023-06-22T13:06:47;29.40;41.00
80250;DHT22;69561;37.974;23.708;2023-06-22T13:09:14;29.40;41.10
80250;DHT22;69561;37.974;23.708;2023-06-22T13:11:42;29.40;41.20
80250;DHT22;69561;37.974;23.708;2023-06-22T13:14:08;29.40;41.10
80250;DHT22;69561;37.974;23.708;2023-06-22T13:16:34;29.30;40.90
80250;DHT22;69561;37.974;23.708;2023-06-22T13:19:00;29.40;41.70
80250;DHT22;69561;37.974;23.708;2023-06-22T13:21:25;29.40;40.70
80250;DHT22;69561;37.974;23.708;2023-06-22T13:23:51;29.50;40.90
80250;DHT22;69561;37.974;23.708;2023-06-22T13:26:17;29.50;40.80
80250;DHT22;69561;37.974;23.708;2023-06-22T13:28:43;29.50;40.90
80250;DHT22;69561;37.974;23.708;2023-06-22T13:31:09;29.40;40.80
80250;DHT22;69561;37.974;23.708;2023-06-22T13:33:34;29.50;41.60
80250;DHT22;69561;37.974;23.708;2023-06-22T13:36:00;29.50;40.60
80250;DHT22;69561;37.974;23.708;2023-06-22T13:38:29;29.40;40.60
80250;DHT22;69561;37.974;23.708;2023-06-22T13:40:56;29.50;40.70
80250;DHT22;69561;37.974;23.708;2023-06-22T13:43:24;29.40;40.60
80250;DHT22;69561;37.974;23.708;2023-06-22T13:45:50;29.40;40.60
80250;DHT22;69561;37.974;23.708;2023-06-22T13:48:16;29.40;40.70
80250;DHT22;69561;37.974;23.708;2023-06-22T13:50:42;29.40;40.80
80250;DHT22;69561;37.974;23.708;2023-06-22T13:53:08;29.40;40.90
80250;DHT22;69561;37.974;23.708;2023-06-22T13:55:34;29.40;40.90
80250;DHT22;69561;37.974;23.708;2023-06-22T13:58:03;29.40;40.90
80250;DHT22;69561;37.974;23.708;2023-06-22T14:00:29;29.40;40.90
80250;DHT22;69561;37.974;23.708;2023-06-22T14:02:56;29.40;40.90
80250;DHT22;69561;37.974;23.708;2023-06-22T14:05:22;29.30;40.80
80250;DHT22;69561;37.974;23.708;2023-06-22T14:07:48;29.30;40.60
80250;DHT22;69561;37.974;23.708;2023-06-22T14:10:14;29.30;40.60
80250;DHT22;69561;37.974;23.708;2023-06-22T14:12:39;29.40;40.50
80250;DHT22;69561;37.974;23.708;2023-06-22T14:15:05;29.50;40.10
80250;DHT22;69561;37.974;23.708;2023-06-22T14:17:31;29.60;39.70
80250;DHT22;69561;37.974;23.708;2023-06-22T14:19:57;29.50;39.70
80250;DHT22;69561;37.974;23.708;2023-06-22T14:22:23;29.50;39.70
80250;DHT22;69561;37.974;23.708;2023-06-22T14:24:49;29.50;39.80
80250;DHT22;69561;37.974;23.708;2023-06-22T14:27:15;29.40;39.80
80250;DHT22;69561;37.974;23.708;2023-06-22T14:29:41;29.40;40.00
80250;DHT22;69561;37.974;23.708;2023-06-22T14:32:08;29.40;40.20
80250;DHT22;69561;37.974;23.708;2023-06-22T14:34:35;29.30;40.20
80250;DHT22;69561;37.974;23.708;2023-06-22T14:37:08;29.30;40.20
80250;DHT22;69561;37.974;23.708;2023-06-22T14:39:35;29.30;40.30
80250;DHT22;69561;37.974;23.708;2023-06-22T14:42:01;29.20;40.30
80250;DHT22;69561;37.974;23.708;2023-06-22T14:44:28;29.20;40.40
80250;DHT22;69561;37.974;23.708;2023-06-22T14:46:57;29.20;40.40
80250;DHT22;69561;37.974;23.708;2023-06-22T14:49:23;29.10;40.60
80250;DHT22;69561;37.974;23.708;2023-06-22T14:51:49;29.10;40.80
80250;DHT22;69561;37.974;23.708;2023-06-22T14:54:14;29.10;41.00
80250;DHT22;69561;37.974;23.708;2023-06-22T14:56:40;29.20;41.00
80250;DHT22;69561;37.974;23.708;2023-06-22T14:59:06;29.20;41.10
80250;DHT22;69561;37.974;23.708;2023-06-22T15:01:32;29.20;41.10
80250;DHT22;69561;37.974;23.708;2023-06-22T15:03:58;29.10;41.10
80250;DHT22;69561;37.974;23.708;2023-06-22T15:06:23;29.10;41.10
80250;DHT22;69561;37.974;23.708;2023-06-22T15:08:49;29.10;41.10
80250;DHT22;69561;37.974;23.708;2023-06-22T15:11:15;29.20;41.10
80250;DHT22;69561;37.974;23.708;2023-06-22T15:13:41;29.10;41.00
80250;DHT22;69561;37.974;23.708;2023-06-22T15:16:08;29.10;41.00
80250;DHT22;69561;37.974;23.708;2023-06-22T15:18:35;29.10;41.00
80250;DHT22;69561;37.974;23.708;2023-06-22T15:21:02;29.20;41.10